sensor_id;sensor_type;location;lat;lon;timestamp;P1;durP1;ratioP1;P2;durP2;ratioP2
20743;SDS011;56303;52.160;-0.428;2023-02-14T00:00:49;50.13;;;37.03;;
20743;SDS011;56303;52.160;-0.428;2023-02-14T00:03:17;54.23;;;37.33;;
20743;SDS011;56303;52.160;-0.428;2023-02-14T00:05:45;66.37;;;44.87;;
20743;SDS011;56303;52.160;-0.428;2023-02-14T00:08:12;86.90;;;49.87;;
20743;SDS011;56303;52.160;-0.428;2023-02-14T00:10:39;88.83;;;53.60;;
20743;SDS011;56303;52.160;-0.428;2023-02-14T00:13:05;108.63;;;57.67;;
20743;SDS011;56303;52.160;-0.428;2023-02-14T00:15:33;78.07;;;46.73;;
20743;SDS011;56303;52.160;-0.428;2023-02-14T00:18:00;147.00;;;69.37;;
20743;SDS011;56303;52.160;-0.428;2023-02-14T00:20:28;114.73;;;61.73;;
20743;SDS011;56303;52.160;-0.428;2023-02-14T00:22:55;85.33;;;49.10;;
20743;SDS011;56303;52.160;-0.428;2023-02-14T00:25:22;77.60;;;47.63;;
20743;SDS011;56303;52.160;-0.428;2023-02-14T00:27:48;76.23;;;47.90;;
20743;SDS011;56303;52.160;-0.428;2023-02-14T00:30:15;78.27;;;47.87;;
20743;SDS011;56303;52.160;-0.428;2023-02-14T00:32:42;75.07;;;47.73;;
20743;SDS011;56303;52.160;-0.428;2023-02-14T00:35:09;74.10;;;44.07;;
20743;SDS011;56303;52.160;-0.428;2023-02-14T00:37:36;68.27;;;46.63;;
20743;SDS011;56303;52.160;-0.428;2023-02-14T00:40:04;68.50;;;45.50;;
20743;SDS011;56303;52.160;-0.428;2023-02-14T00:42:32;62.17;;;39.83;;
20743;SDS011;56303;52.160;-0.428;2023-02-14T00:44:59;59.20;;;39.30;;
20743;SDS011;56303;52.160;-0.428;2023-02-14T00:47:26;95.80;;;41.40;;
20743;SDS011;56303;52.160;-0.428;2023-02-14T00:49:53;113.60;;;43.87;;
20743;SDS011;56303;52.160;-0.428;2023-02-14T00:52:20;100.03;;;40.13;;
20743;SDS011;56303;52.160;-0.428;2023-02-14T00:54:47;75.37;;;35.97;;
20743;SDS011;56303;52.160;-0.428;2023-02-14T00:57:13;70.33;;;35.90;;
20743;SDS011;56303;52.160;-0.428;2023-02-14T00:59:40;79.87;;;40.97;;
20743;SDS011;56303;52.160;-0.428;2023-02-14T01:02:08;81.20;;;38.67;;
20743;SDS011;56303;52.160;-0.428;2023-02-14T01:04:37;232.33;;;66.10;;
20743;SDS011;56303;52.160;-0.428;2023-02-14T01:07:05;231.57;;;72.07;;
20743;SDS011;56303;52.160;-0.428;2023-02-14T01:09:31;101.70;;;41.20;;
20743;SDS011;56303;52.160;-0.428;2023-02-14T01:11:58;63.90;;;33.23;;
20743;SDS011;56303;52.160;-0.428;2023-02-14T01:14:25;84.40;;;32.17;;
20743;SDS011;56303;52.160;-0.428;2023-02-14T01:16:52;61.17;;;30.97;;
20743;SDS011;56303;52.160;-0.428;2023-02-14T01:19:19;77.70;;;32.67;;
20743;SDS011;56303;52.160;-0.428;2023-02-14T01:21:45;115.37;;;37.40;;
20743;SDS011;56303;52.160;-0.428;2023-02-14T01:24:13;74.37;;;31.00;;
20743;SDS011;56303;52.160;-0.428;2023-02-14T01:26:40;110.07;;;37.60;;
20743;SDS011;56303;52.160;-0.428;2023-02-14T01:29:07;78.67;;;35.33;;
20743;SDS011;56303;52.160;-0.428;2023-02-14T01:31:34;141.10;;;41.73;;
20743;SDS011;56303;52.160;-0.428;2023-02-14T01:34:02;196.73;;;51.27;;
20743;SDS011;56303;52.160;-0.428;2023-02-14T01:36:31;143.17;;;44.43;;
20743;SDS011;56303;52.160;-0.428;2023-02-14T01:39:01;117.17;;;40.83;;
20743;SDS011;56303;52.160;-0.428;2023-02-14T01:41:32;92.77;;;36.77;;
20743;SDS011;56303;52.160;-0.428;2023-02-14T01:44:03;82.57;;;33.80;;
20743;SDS011;56303;52.160;-0.428;2023-02-14T01:46:53;242.80;;;62.63;;
20743;SDS011;56303;52.160;-0.428;2023-02-14T01:49:29;237.80;;;61.07;;
20743;SDS011;56303;52.160;-0.428;2023-02-14T01:52:07;96.27;;;35.23;;
20743;SDS011;56303;52.160;-0.428;2023-02-14T01:54:40;306.33;;;83.97;;
20743;SDS011;56303;52.160;-0.428;2023-02-14T01:57:11;68.40;;;35.33;;
20743;SDS011;56303;52.160;-0.428;2023-02-14T01:59:48;96.60;;;39.10;;
20743;SDS011;56303;52.160;-0.428;2023-02-14T02:02:18;72.73;;;35.53;;
20743;SDS011;56303;52.160;-0.428;2023-02-14T02:04:50;100.90;;;44.97;;
20743;SDS011;56303;52.160;-0.428;2023-02-14T02:07:22;58.77;;;35.60;;
20743;SDS011;56303;52.160;-0.428;2023-02-14T02:09:58;75.97;;;38.07;;
20743;SDS011;56303;52.160;-0.428;2023-02-14T02:12:27;72.43;;;41.30;;
20743;SDS011;56303;52.160;-0.428;2023-02-14T02:14:56;54.13;;;35.50;;
20743;SDS011;56303;52.160;-0.428;2023-02-14T02:45:12;90.93;;;37.77;;
20743;SDS011;56303;52.160;-0.428;2023-02-14T02:47:51;102.33;;;38.30;;
20743;SDS011;56303;52.160;-0.428;2023-02-14T02:50:27;140.07;;;40.43;;
20743;SDS011;56303;52.160;-0.428;2023-02-14T02:56:09;136.33;;;43.87;;
20743;SDS011;56303;52.160;-0.428;2023-02-14T02:59:03;157.00;;;42.03;;
20743;SDS011;56303;52.160;-0.428;2023-02-14T03:02:29;94.13;;;34.00;;
20743;SDS011;56303;52.160;-0.428;2023-02-14T03:04:43;97.83;;;36.30;;
20743;SDS011;56303;52.160;-0.428;2023-02-14T03:15:08;86.50;;;36.63;;
20743;SDS011;56303;52.160;-0.428;2023-02-14T03:30:16;47.23;;;30.83;;
20743;SDS011;56303;52.160;-0.428;2023-02-14T03:32:58;58.60;;;34.90;;
20743;SDS011;56303;52.160;-0.428;2023-02-14T03:35:35;117.00;;;41.90;;
20743;SDS011;56303;52.160;-0.428;2023-02-14T03:41:00;59.30;;;33.27;;
20743;SDS011;56303;52.160;-0.428;2023-02-14T03:46:09;79.30;;;38.07;;
20743;SDS011;56303;52.160;-0.428;2023-02-14T03:48:37;60.37;;;38.27;;
20743;SDS011;56303;52.160;-0.428;2023-02-14T03:51:06;84.87;;;42.33;;
20743;SDS011;56303;52.160;-0.428;2023-02-14T03:53:37;189.10;;;59.43;;
20743;SDS011;56303;52.160;-0.428;2023-02-14T03:56:13;110.57;;;45.03;;
20743;SDS011;56303;52.160;-0.428;2023-02-14T03:59:00;120.83;;;44.43;;
20743;SDS011;56303;52.160;-0.428;2023-02-14T04:01:34;110.50;;;38.07;;
20743;SDS011;56303;52.160;-0.428;2023-02-14T04:04:04;151.83;;;45.93;;
20743;SDS011;56303;52.160;-0.428;2023-02-14T04:06:33;101.80;;;40.37;;
20743;SDS011;56303;52.160;-0.428;2023-02-14T04:09:00;70.63;;;33.70;;
20743;SDS011;56303;52.160;-0.428;2023-02-14T04:11:27;148.93;;;48.93;;
20743;SDS011;56303;52.160;-0.428;2023-02-14T04:13:58;74.53;;;37.60;;
20743;SDS011;56303;52.160;-0.428;2023-02-14T04:16:25;61.40;;;30.73;;
20743;SDS011;56303;52.160;-0.428;2023-02-14T04:18:52;78.67;;;35.97;;
20743;SDS011;56303;52.160;-0.428;2023-02-14T04:21:37;206.47;;;66.27;;
20743;SDS011;56303;52.160;-0.428;2023-02-14T04:24:04;53.80;;;30.43;;
20743;SDS011;56303;52.160;-0.428;2023-02-14T04:26:31;51.67;;;33.93;;
20743;SDS011;56303;52.160;-0.428;2023-02-14T04:28:58;132.37;;;55.47;;
20743;SDS011;56303;52.160;-0.428;2023-02-14T04:31:25;59.83;;;36.17;;
20743;SDS011;56303;52.160;-0.428;2023-02-14T04:33:52;66.40;;;40.30;;
20743;SDS011;56303;52.160;-0.428;2023-02-14T04:36:19;52.27;;;36.47;;
20743;SDS011;56303;52.160;-0.428;2023-02-14T04:38:46;44.83;;;32.00;;
20743;SDS011;56303;52.160;-0.428;2023-02-14T04:41:12;51.50;;;35.87;;
20743;SDS011;56303;52.160;-0.428;2023-02-14T04:43:39;50.27;;;34.03;;
20743;SDS011;56303;52.160;-0.428;2023-02-14T04:46:08;48.83;;;36.77;;
20743;SDS011;56303;52.160;-0.428;2023-02-14T04:48:36;54.77;;;37.73;;
20743;SDS011;56303;52.160;-0.428;2023-02-14T04:51:03;54.03;;;36.50;;
20743;SDS011;56303;52.160;-0.428;2023-02-14T04:53:32;46.33;;;33.77;;
20743;SDS011;56303;52.160;-0.428;2023-02-14T04:56:06;43.97;;;32.03;;
20743;SDS011;56303;52.160;-0.428;2023-02-14T04:58:33;58.13;;;36.13;;
20743;SDS011;56303;52.160;-0.428;2023-02-14T05:01:00;92.63;;;41.50;;
20743;SDS011;56303;52.160;-0.428;2023-02-14T05:03:28;85.33;;;37.07;;
20743;SDS011;56303;52.160;-0.428;2023-02-14T05:05:54;50.90;;;30.30;;
20743;SDS011;56303;52.160;-0.428;2023-02-14T05:08:21;55.80;;;35.73;;
20743;SDS011;56303;52.160;-0.428;2023-02-14T05:10:48;245.20;;;64.13;;
20743;SDS011;56303;52.160;-0.428;2023-02-14T05:13:15;321.10;;;73.40;;
20743;SDS011;56303;52.160;-0.428;2023-02-14T05:15:43;184.13;;;54.43;;
20743;SDS011;56303;52.160;-0.428;2023-02-14T05:18:11;177.57;;;61.60;;
20743;SDS011;56303;52.160;-0.428;2023-02-14T05:20:38;336.93;;;85.53;;
20743;SDS011;56303;52.160;-0.428;2023-02-14T05:23:06;658.00;;;141.03;;
20743;SDS011;56303;52.160;-0.428;2023-02-14T05:25:39;799.30;;;158.33;;
20743;SDS011;56303;52.160;-0.428;2023-02-14T05:28:07;167.50;;;51.47;;
20743;SDS011;56303;52.160;-0.428;2023-02-14T05:30:34;114.90;;;45.67;;
20743;SDS011;56303;52.160;-0.428;2023-02-14T05:33:02;98.13;;;41.20;;
20743;SDS011;56303;52.160;-0.428;2023-02-14T05:35:30;672.17;;;128.73;;
20743;SDS011;56303;52.160;-0.428;2023-02-14T05:37:56;166.07;;;46.17;;
20743;SDS011;56303;52.160;-0.428;2023-02-14T05:40:23;279.20;;;73.17;;
20743;SDS011;56303;52.160;-0.428;2023-02-14T05:42:50;394.07;;;88.23;;
20743;SDS011;56303;52.160;-0.428;2023-02-14T05:45:21;103.90;;;37.20;;
20743;SDS011;56303;52.160;-0.428;2023-02-14T05:47:48;72.60;;;36.97;;
20743;SDS011;56303;52.160;-0.428;2023-02-14T05:50:16;125.37;;;37.33;;
20743;SDS011;56303;52.160;-0.428;2023-02-14T05:52:43;291.90;;;59.83;;
20743;SDS011;56303;52.160;-0.428;2023-02-14T05:55:12;249.47;;;47.87;;
20743;SDS011;56303;52.160;-0.428;2023-02-14T05:57:39;288.87;;;53.57;;
20743;SDS011;56303;52.160;-0.428;2023-02-14T06:00:06;309.37;;;76.13;;
20743;SDS011;56303;52.160;-0.428;2023-02-14T06:02:34;143.97;;;48.40;;
20743;SDS011;56303;52.160;-0.428;2023-02-14T06:05:01;623.97;;;121.07;;
20743;SDS011;56303;52.160;-0.428;2023-02-14T06:07:27;260.57;;;57.40;;
20743;SDS011;56303;52.160;-0.428;2023-02-14T06:09:55;174.70;;;42.37;;
20743;SDS011;56303;52.160;-0.428;2023-02-14T06:12:22;147.57;;;47.47;;
20743;SDS011;56303;52.160;-0.428;2023-02-14T06:14:49;276.77;;;70.07;;
20743;SDS011;56303;52.160;-0.428;2023-02-14T06:17:16;216.40;;;51.17;;
20743;SDS011;56303;52.160;-0.428;2023-02-14T06:19:43;182.60;;;52.00;;
20743;SDS011;56303;52.160;-0.428;2023-02-14T06:22:09;299.07;;;71.80;;
20743;SDS011;56303;52.160;-0.428;2023-02-14T06:24:36;133.83;;;41.50;;
20743;SDS011;56303;52.160;-0.428;2023-02-14T06:27:03;149.37;;;41.90;;
20743;SDS011;56303;52.160;-0.428;2023-02-14T06:29:30;84.63;;;36.63;;
20743;SDS011;56303;52.160;-0.428;2023-02-14T06:31:57;200.67;;;50.23;;
20743;SDS011;56303;52.160;-0.428;2023-02-14T06:34:31;278.77;;;58.90;;
20743;SDS011;56303;52.160;-0.428;2023-02-14T06:36:59;200.47;;;47.30;;
20743;SDS011;56303;52.160;-0.428;2023-02-14T06:39:26;115.17;;;38.40;;
20743;SDS011;56303;52.160;-0.428;2023-02-14T06:41:52;162.83;;;49.40;;
20743;SDS011;56303;52.160;-0.428;2023-02-14T06:44:19;165.90;;;43.30;;
20743;SDS011;56303;52.160;-0.428;2023-02-14T06:46:46;144.77;;;40.67;;
20743;SDS011;56303;52.160;-0.428;2023-02-14T06:49:13;193.90;;;44.70;;
20743;SDS011;56303;52.160;-0.428;2023-02-14T06:51:40;296.13;;;60.50;;
20743;SDS011;56303;52.160;-0.428;2023-02-14T06:54:07;166.03;;;40.27;;
20743;SDS011;56303;52.160;-0.428;2023-02-14T06:56:34;115.93;;;37.77;;
20743;SDS011;56303;52.160;-0.428;2023-02-14T06:59:00;322.33;;;70.40;;
20743;SDS011;56303;52.160;-0.428;2023-02-14T07:01:27;181.90;;;42.47;;
20743;SDS011;56303;52.160;-0.428;2023-02-14T07:03:55;104.90;;;36.73;;
20743;SDS011;56303;52.160;-0.428;2023-02-14T07:06:21;164.33;;;42.30;;
20743;SDS011;56303;52.160;-0.428;2023-02-14T07:08:48;231.03;;;57.60;;
20743;SDS011;56303;52.160;-0.428;2023-02-14T07:11:15;149.40;;;44.80;;
20743;SDS011;56303;52.160;-0.428;2023-02-14T07:13:42;255.83;;;62.27;;
20743;SDS011;56303;52.160;-0.428;2023-02-14T07:16:09;146.03;;;45.70;;
20743;SDS011;56303;52.160;-0.428;2023-02-14T07:18:37;83.87;;;34.90;;
20743;SDS011;56303;52.160;-0.428;2023-02-14T07:21:04;279.27;;;60.27;;
20743;SDS011;56303;52.160;-0.428;2023-02-14T07:23:33;104.50;;;38.97;;
20743;SDS011;56303;52.160;-0.428;2023-02-14T07:25:59;109.80;;;37.03;;
20743;SDS011;56303;52.160;-0.428;2023-02-14T07:28:26;130.53;;;43.43;;
20743;SDS011;56303;52.160;-0.428;2023-02-14T07:30:59;136.97;;;40.20;;
20743;SDS011;56303;52.160;-0.428;2023-02-14T07:33:27;89.10;;;35.87;;
20743;SDS011;56303;52.160;-0.428;2023-02-14T07:35:55;61.23;;;35.03;;
20743;SDS011;56303;52.160;-0.428;2023-02-14T07:38:22;372.63;;;82.47;;
20743;SDS011;56303;52.160;-0.428;2023-02-14T07:40:52;429.27;;;91.00;;
20743;SDS011;56303;52.160;-0.428;2023-02-14T07:43:20;157.17;;;48.43;;
20743;SDS011;56303;52.160;-0.428;2023-02-14T07:45:47;224.83;;;66.40;;
20743;SDS011;56303;52.160;-0.428;2023-02-14T07:48:14;73.93;;;36.97;;
20743;SDS011;56303;52.160;-0.428;2023-02-14T07:50:40;115.20;;;44.13;;
20743;SDS011;56303;52.160;-0.428;2023-02-14T07:53:10;256.47;;;70.77;;
20743;SDS011;56303;52.160;-0.428;2023-02-14T07:55:38;209.00;;;61.33;;
20743;SDS011;56303;52.160;-0.428;2023-02-14T07:58:06;319.03;;;79.43;;
20743;SDS011;56303;52.160;-0.428;2023-02-14T08:00:33;327.17;;;80.47;;
20743;SDS011;56303;52.160;-0.428;2023-02-14T08:02:59;131.20;;;45.60;;
20743;SDS011;56303;52.160;-0.428;2023-02-14T08:05:26;204.07;;;60.83;;
20743;SDS011;56303;52.160;-0.428;2023-02-14T08:07:53;120.30;;;48.23;;
20743;SDS011;56303;52.160;-0.428;2023-02-14T08:10:20;264.47;;;67.73;;
20743;SDS011;56303;52.160;-0.428;2023-02-14T08:12:47;246.27;;;72.47;;
20743;SDS011;56303;52.160;-0.428;2023-02-14T08:15:30;600.90;;;122.73;;
20743;SDS011;56303;52.160;-0.428;2023-02-14T08:18:17;460.93;;;88.67;;
20743;SDS011;56303;52.160;-0.428;2023-02-14T08:20:46;752.67;;;141.43;;
20743;SDS011;56303;52.160;-0.428;2023-02-14T08:23:17;547.40;;;120.20;;
20743;SDS011;56303;52.160;-0.428;2023-02-14T08:25:48;350.40;;;90.33;;
20743;SDS011;56303;52.160;-0.428;2023-02-14T08:28:16;383.43;;;96.43;;
20743;SDS011;56303;52.160;-0.428;2023-02-14T08:30:47;322.87;;;77.70;;
20743;SDS011;56303;52.160;-0.428;2023-02-14T08:33:14;363.73;;;80.77;;
20743;SDS011;56303;52.160;-0.428;2023-02-14T08:35:43;227.00;;;62.67;;
20743;SDS011;56303;52.160;-0.428;2023-02-14T08:38:10;132.27;;;50.67;;
20743;SDS011;56303;52.160;-0.428;2023-02-14T08:40:38;585.10;;;119.23;;
20743;SDS011;56303;52.160;-0.428;2023-02-14T08:43:05;616.77;;;133.47;;
20743;SDS011;56303;52.160;-0.428;2023-02-14T08:45:34;559.77;;;123.03;;
20743;SDS011;56303;52.160;-0.428;2023-02-14T08:48:03;340.40;;;82.70;;
20743;SDS011;56303;52.160;-0.428;2023-02-14T08:50:32;225.50;;;62.07;;
20743;SDS011;56303;52.160;-0.428;2023-02-14T08:52:59;508.93;;;103.17;;
20743;SDS011;56303;52.160;-0.428;2023-02-14T08:55:27;348.33;;;81.53;;
20743;SDS011;56303;52.160;-0.428;2023-02-14T08:57:55;368.93;;;87.90;;
20743;SDS011;56303;52.160;-0.428;2023-02-14T09:00:22;486.10;;;105.13;;
20743;SDS011;56303;52.160;-0.428;2023-02-14T09:02:52;155.27;;;53.43;;
20743;SDS011;56303;52.160;-0.428;2023-02-14T09:05:19;422.70;;;99.90;;
20743;SDS011;56303;52.160;-0.428;2023-02-14T09:07:50;437.83;;;107.53;;
20743;SDS011;56303;52.160;-0.428;2023-02-14T09:10:21;418.87;;;100.27;;
20743;SDS011;56303;52.160;-0.428;2023-02-14T09:12:49;139.90;;;45.87;;
20743;SDS011;56303;52.160;-0.428;2023-02-14T09:15:15;99.90;;;45.90;;
20743;SDS011;56303;52.160;-0.428;2023-02-14T09:17:43;147.97;;;51.87;;
20743;SDS011;56303;52.160;-0.428;2023-02-14T09:20:11;107.13;;;42.87;;
20743;SDS011;56303;52.160;-0.428;2023-02-14T09:22:39;134.13;;;46.20;;
20743;SDS011;56303;52.160;-0.428;2023-02-14T09:25:06;147.70;;;44.93;;
20743;SDS011;56303;52.160;-0.428;2023-02-14T09:27:33;128.20;;;46.27;;
20743;SDS011;56303;52.160;-0.428;2023-02-14T09:30:00;220.23;;;54.60;;
20743;SDS011;56303;52.160;-0.428;2023-02-14T09:32:27;108.00;;;40.97;;
20743;SDS011;56303;52.160;-0.428;2023-02-14T09:34:54;233.93;;;45.73;;
20743;SDS011;56303;52.160;-0.428;2023-02-14T09:37:21;102.40;;;38.83;;
20743;SDS011;56303;52.160;-0.428;2023-02-14T09:40:07;237.07;;;53.27;;
20743;SDS011;56303;52.160;-0.428;2023-02-14T09:45:28;180.10;;;54.40;;
20743;SDS011;56303;52.160;-0.428;2023-02-14T09:48:02;208.30;;;51.03;;
20743;SDS011;56303;52.160;-0.428;2023-02-14T09:50:47;139.70;;;38.07;;
20743;SDS011;56303;52.160;-0.428;2023-02-14T09:53:28;198.07;;;45.87;;
20743;SDS011;56303;52.160;-0.428;2023-02-14T10:01:28;309.27;;;58.67;;
20743;SDS011;56303;52.160;-0.428;2023-02-14T10:04:30;373.03;;;73.13;;
20743;SDS011;56303;52.160;-0.428;2023-02-14T10:07:09;144.13;;;37.83;;
20743;SDS011;56303;52.160;-0.428;2023-02-14T10:10:13;230.17;;;47.43;;
20743;SDS011;56303;52.160;-0.428;2023-02-14T10:15:36;375.70;;;70.57;;
20743;SDS011;56303;52.160;-0.428;2023-02-14T10:18:41;169.83;;;45.03;;
20743;SDS011;56303;52.160;-0.428;2023-02-14T10:21:21;160.10;;;40.67;;
20743;SDS011;56303;52.160;-0.428;2023-02-14T10:24:15;146.63;;;38.10;;
20743;SDS011;56303;52.160;-0.428;2023-02-14T10:26:42;164.80;;;47.37;;
20743;SDS011;56303;52.160;-0.428;2023-02-14T10:29:12;208.63;;;47.37;;
20743;SDS011;56303;52.160;-0.428;2023-02-14T10:45:32;124.47;;;38.70;;
20743;SDS011;56303;52.160;-0.428;2023-02-14T10:56:14;123.43;;;40.83;;
20743;SDS011;56303;52.160;-0.428;2023-02-14T10:58:48;96.33;;;33.93;;
20743;SDS011;56303;52.160;-0.428;2023-02-14T11:01:17;95.33;;;36.53;;
20743;SDS011;56303;52.160;-0.428;2023-02-14T11:04:02;90.00;;;33.13;;
20743;SDS011;56303;52.160;-0.428;2023-02-14T11:06:33;92.47;;;35.07;;
20743;SDS011;56303;52.160;-0.428;2023-02-14T11:09:00;85.80;;;36.97;;
20743;SDS011;56303;52.160;-0.428;2023-02-14T11:11:29;85.67;;;34.87;;
20743;SDS011;56303;52.160;-0.428;2023-02-14T11:16:54;53.10;;;29.67;;
20743;SDS011;56303;52.160;-0.428;2023-02-14T11:19:30;53.30;;;31.70;;
20743;SDS011;56303;52.160;-0.428;2023-02-14T11:22:02;79.57;;;34.90;;
20743;SDS011;56303;52.160;-0.428;2023-02-14T11:24:33;44.07;;;29.50;;
20743;SDS011;56303;52.160;-0.428;2023-02-14T11:27:13;67.63;;;33.57;;
20743;SDS011;56303;52.160;-0.428;2023-02-14T11:29:43;44.87;;;30.47;;
20743;SDS011;56303;52.160;-0.428;2023-02-14T11:32:20;60.47;;;34.83;;
20743;SDS011;56303;52.160;-0.428;2023-02-14T11:34:53;68.13;;;37.97;;
20743;SDS011;56303;52.160;-0.428;2023-02-14T11:37:30;50.80;;;34.87;;
20743;SDS011;56303;52.160;-0.428;2023-02-14T11:40:02;58.03;;;36.73;;
20743;SDS011;56303;52.160;-0.428;2023-02-14T11:56:08;28.83;;;24.23;;
20743;SDS011;56303;52.160;-0.428;2023-02-14T12:01:06;24.03;;;21.43;;
20743;SDS011;56303;52.160;-0.428;2023-02-14T12:03:42;31.13;;;27.43;;
20743;SDS011;56303;52.160;-0.428;2023-02-14T12:06:12;28.00;;;24.23;;
20743;SDS011;56303;52.160;-0.428;2023-02-14T12:11:58;26.83;;;23.37;;
20743;SDS011;56303;52.160;-0.428;2023-02-14T12:14:40;26.07;;;23.33;;
20743;SDS011;56303;52.160;-0.428;2023-02-14T12:22:13;27.47;;;24.07;;
20743;SDS011;56303;52.160;-0.428;2023-02-14T12:24:51;27.33;;;24.33;;
20743;SDS011;56303;52.160;-0.428;2023-02-14T12:27:31;28.70;;;24.73;;
20743;SDS011;56303;52.160;-0.428;2023-02-14T12:30:19;31.83;;;26.13;;
20743;SDS011;56303;52.160;-0.428;2023-02-14T12:32:51;27.63;;;24.77;;
20743;SDS011;56303;52.160;-0.428;2023-02-14T12:35:44;27.57;;;24.30;;
20743;SDS011;56303;52.160;-0.428;2023-02-14T12:44:03;27.20;;;24.30;;
20743;SDS011;56303;52.160;-0.428;2023-02-14T12:54:43;30.37;;;27.17;;
20743;SDS011;56303;52.160;-0.428;2023-02-14T13:08:59;24.47;;;22.17;;
20743;SDS011;56303;52.160;-0.428;2023-02-14T13:22:29;23.10;;;20.97;;
20743;SDS011;56303;52.160;-0.428;2023-02-14T13:25:00;23.70;;;21.43;;
20743;SDS011;56303;52.160;-0.428;2023-02-14T13:27:38;24.17;;;21.70;;
20743;SDS011;56303;52.160;-0.428;2023-02-14T13:30:22;22.90;;;20.70;;
20743;SDS011;56303;52.160;-0.428;2023-02-14T13:32:50;23.73;;;21.37;;
20743;SDS011;56303;52.160;-0.428;2023-02-14T13:35:22;23.87;;;21.40;;
20743;SDS011;56303;52.160;-0.428;2023-02-14T13:37:52;22.77;;;20.50;;
20743;SDS011;56303;52.160;-0.428;2023-02-14T13:40:28;24.73;;;22.23;;
20743;SDS011;56303;52.160;-0.428;2023-02-14T13:42:58;24.87;;;22.47;;
20743;SDS011;56303;52.160;-0.428;2023-02-14T13:48:09;22.87;;;20.63;;
20743;SDS011;56303;52.160;-0.428;2023-02-14T13:50:55;24.97;;;22.37;;
20743;SDS011;56303;52.160;-0.428;2023-02-14T13:59:00;25.13;;;22.63;;
20743;SDS011;56303;52.160;-0.428;2023-02-14T14:19:59;24.43;;;22.07;;
20743;SDS011;56303;52.160;-0.428;2023-02-14T14:22:29;25.30;;;22.90;;
20743;SDS011;56303;52.160;-0.428;2023-02-14T14:25:00;27.03;;;24.23;;
20743;SDS011;56303;52.160;-0.428;2023-02-14T14:27:31;27.07;;;24.37;;
20743;SDS011;56303;52.160;-0.428;2023-02-14T14:30:14;24.80;;;22.40;;
20743;SDS011;56303;52.160;-0.428;2023-02-14T14:32:48;28.67;;;25.77;;
20743;SDS011;56303;52.160;-0.428;2023-02-14T14:35:18;29.97;;;26.93;;
20743;SDS011;56303;52.160;-0.428;2023-02-14T14:37:52;28.63;;;25.80;;
20743;SDS011;56303;52.160;-0.428;2023-02-14T14:40:24;26.00;;;23.50;;
20743;SDS011;56303;52.160;-0.428;2023-02-14T14:42:54;26.83;;;24.20;;
20743;SDS011;56303;52.160;-0.428;2023-02-14T14:45:30;28.87;;;26.13;;
20743;SDS011;56303;52.160;-0.428;2023-02-14T14:47:58;28.73;;;26.00;;
20743;SDS011;56303;52.160;-0.428;2023-02-14T14:50:29;28.70;;;25.90;;
20743;SDS011;56303;52.160;-0.428;2023-02-14T14:53:04;28.97;;;26.20;;
20743;SDS011;56303;52.160;-0.428;2023-02-14T14:55:35;29.47;;;26.67;;
20743;SDS011;56303;52.160;-0.428;2023-02-14T14:58:06;30.10;;;27.30;;
20743;SDS011;56303;52.160;-0.428;2023-02-14T15:00:53;29.00;;;26.10;;
20743;SDS011;56303;52.160;-0.428;2023-02-14T15:03:21;31.53;;;28.47;;
20743;SDS011;56303;52.160;-0.428;2023-02-14T15:05:50;28.37;;;25.53;;
20743;SDS011;56303;52.160;-0.428;2023-02-14T15:08:28;31.40;;;28.47;;
20743;SDS011;56303;52.160;-0.428;2023-02-14T15:11:07;31.73;;;28.60;;
20743;SDS011;56303;52.160;-0.428;2023-02-14T15:14:05;30.93;;;27.70;;
20743;SDS011;56303;52.160;-0.428;2023-02-14T15:16:46;29.27;;;26.47;;
20743;SDS011;56303;52.160;-0.428;2023-02-14T15:19:17;28.70;;;26.00;;
20743;SDS011;56303;52.160;-0.428;2023-02-14T15:21:48;30.33;;;27.60;;
20743;SDS011;56303;52.160;-0.428;2023-02-14T15:24:16;29.27;;;26.67;;
20743;SDS011;56303;52.160;-0.428;2023-02-14T15:26:45;31.33;;;28.30;;
20743;SDS011;56303;52.160;-0.428;2023-02-14T15:29:24;32.73;;;29.50;;
20743;SDS011;56303;52.160;-0.428;2023-02-14T15:31:53;32.97;;;29.80;;
20743;SDS011;56303;52.160;-0.428;2023-02-14T15:34:26;33.10;;;29.87;;
20743;SDS011;56303;52.160;-0.428;2023-02-14T15:36:57;31.27;;;28.13;;
20743;SDS011;56303;52.160;-0.428;2023-02-14T15:39:32;31.27;;;28.03;;
20743;SDS011;56303;52.160;-0.428;2023-02-14T15:42:03;32.57;;;29.47;;
20743;SDS011;56303;52.160;-0.428;2023-02-14T15:44:31;33.23;;;29.87;;
20743;SDS011;56303;52.160;-0.428;2023-02-14T15:47:00;32.90;;;29.70;;
20743;SDS011;56303;52.160;-0.428;2023-02-14T15:49:30;34.47;;;31.13;;
20743;SDS011;56303;52.160;-0.428;2023-02-14T15:52:02;34.17;;;30.47;;
20743;SDS011;56303;52.160;-0.428;2023-02-14T15:54:37;34.37;;;31.03;;
20743;SDS011;56303;52.160;-0.428;2023-02-14T15:57:20;32.87;;;29.63;;
20743;SDS011;56303;52.160;-0.428;2023-02-14T15:59:50;34.10;;;30.73;;
20743;SDS011;56303;52.160;-0.428;2023-02-14T16:05:02;33.43;;;30.13;;
20743;SDS011;56303;52.160;-0.428;2023-02-14T16:08:03;33.93;;;30.43;;
20743;SDS011;56303;52.160;-0.428;2023-02-14T16:10:34;33.33;;;30.13;;
20743;SDS011;56303;52.160;-0.428;2023-02-14T16:13:06;34.90;;;31.40;;
20743;SDS011;56303;52.160;-0.428;2023-02-14T16:15:55;32.27;;;28.93;;
20743;SDS011;56303;52.160;-0.428;2023-02-14T16:18:34;33.90;;;30.40;;
20743;SDS011;56303;52.160;-0.428;2023-02-14T16:21:15;32.43;;;29.17;;
20743;SDS011;56303;52.160;-0.428;2023-02-14T16:26:42;30.97;;;28.00;;
20743;SDS011;56303;52.160;-0.428;2023-02-14T16:29:11;33.27;;;29.83;;
20743;SDS011;56303;52.160;-0.428;2023-02-14T16:31:42;34.03;;;30.53;;
20743;SDS011;56303;52.160;-0.428;2023-02-14T16:34:35;34.70;;;31.10;;
20743;SDS011;56303;52.160;-0.428;2023-02-14T16:37:07;34.30;;;30.70;;
20743;SDS011;56303;52.160;-0.428;2023-02-14T16:39:43;33.27;;;29.87;;
20743;SDS011;56303;52.160;-0.428;2023-02-14T16:42:14;31.50;;;28.20;;
20743;SDS011;56303;52.160;-0.428;2023-02-14T16:44:43;33.13;;;29.53;;
20743;SDS011;56303;52.160;-0.428;2023-02-14T16:47:11;32.23;;;26.67;;
20743;SDS011;56303;52.160;-0.428;2023-02-14T16:49:39;30.80;;;27.70;;
20743;SDS011;56303;52.160;-0.428;2023-02-14T16:52:13;30.77;;;26.80;;
20743;SDS011;56303;52.160;-0.428;2023-02-14T16:54:43;29.47;;;26.30;;
20743;SDS011;56303;52.160;-0.428;2023-02-14T16:57:13;27.83;;;24.83;;
20743;SDS011;56303;52.160;-0.428;2023-02-14T16:59:48;28.40;;;24.57;;
20743;SDS011;56303;52.160;-0.428;2023-02-14T17:02:15;28.37;;;24.73;;
20743;SDS011;56303;52.160;-0.428;2023-02-14T17:04:44;29.07;;;25.97;;
20743;SDS011;56303;52.160;-0.428;2023-02-14T17:07:11;30.13;;;26.57;;
20743;SDS011;56303;52.160;-0.428;2023-02-14T17:09:51;29.23;;;26.13;;
20743;SDS011;56303;52.160;-0.428;2023-02-14T17:12:25;32.17;;;26.80;;
20743;SDS011;56303;52.160;-0.428;2023-02-14T17:14:56;30.80;;;26.30;;
20743;SDS011;56303;52.160;-0.428;2023-02-14T17:17:26;31.83;;;26.60;;
20743;SDS011;56303;52.160;-0.428;2023-02-14T17:19:54;29.57;;;25.47;;
20743;SDS011;56303;52.160;-0.428;2023-02-14T17:22:22;30.30;;;26.83;;
20743;SDS011;56303;52.160;-0.428;2023-02-14T17:24:50;31.67;;;25.67;;
20743;SDS011;56303;52.160;-0.428;2023-02-14T17:27:16;32.53;;;27.47;;
20743;SDS011;56303;52.160;-0.428;2023-02-14T17:29:44;32.13;;;27.40;;
20743;SDS011;56303;52.160;-0.428;2023-02-14T17:32:12;31.50;;;25.33;;